sensor_id;sensor_type;location;lat;lon;timestamp;P1;durP1;ratioP1;P2;durP2;ratioP2
11431;SDS011;5772;50.940;6.782;2023-09-08T00:00:36;21.50;;;20.40;;
11431;SDS011;5772;50.940;6.782;2023-09-08T00:03:03;21.27;;;20.07;;
11431;SDS011;5772;50.940;6.782;2023-09-08T00:05:28;21.77;;;20.47;;
11431;SDS011;5772;50.940;6.782;2023-09-08T00:07:54;21.90;;;20.73;;
11431;SDS011;5772;50.940;6.782;2023-09-08T00:10:19;22.73;;;21.30;;
11431;SDS011;5772;50.940;6.782;2023-09-08T00:12:45;21.40;;;20.33;;
11431;SDS011;5772;50.940;6.782;2023-09-08T00:15:10;23.13;;;21.70;;
11431;SDS011;5772;50.940;6.782;2023-09-08T00:17:36;21.70;;;20.43;;
11431;SDS011;5772;50.940;6.782;2023-09-08T00:20:03;22.27;;;20.90;;
11431;SDS011;5772;50.940;6.782;2023-09-08T00:22:30;21.43;;;20.33;;
11431;SDS011;5772;50.940;6.782;2023-09-08T00:24:56;22.57;;;21.27;;
11431;SDS011;5772;50.940;6.782;2023-09-08T00:27:21;24.27;;;22.90;;
11431;SDS011;5772;50.940;6.782;2023-09-08T00:29:46;22.97;;;21.37;;
11431;SDS011;5772;50.940;6.782;2023-09-08T00:32:12;25.23;;;23.93;;
11431;SDS011;5772;50.940;6.782;2023-09-08T00:34:37;24.60;;;22.83;;
11431;SDS011;5772;50.940;6.782;2023-09-08T00:37:06;23.50;;;22.20;;
11431;SDS011;5772;50.940;6.782;2023-09-08T00:39:32;23.67;;;22.20;;
11431;SDS011;5772;50.940;6.782;2023-09-08T00:41:59;24.67;;;23.37;;
11431;SDS011;5772;50.940;6.782;2023-09-08T00:44:25;24.30;;;22.93;;
11431;SDS011;5772;50.940;6.782;2023-09-08T00:46:50;23.60;;;22.20;;
11431;SDS011;5772;50.940;6.782;2023-09-08T00:49:15;23.47;;;22.07;;
11431;SDS011;5772;50.940;6.782;2023-09-08T00:51:41;23.17;;;21.87;;
11431;SDS011;5772;50.940;6.782;2023-09-08T00:54:07;24.77;;;22.87;;
11431;SDS011;5772;50.940;6.782;2023-09-08T00:56:33;22.60;;;21.40;;
11431;SDS011;5772;50.940;6.782;2023-09-08T00:58:59;24.50;;;23.10;;
11431;SDS011;5772;50.940;6.782;2023-09-08T01:01:24;24.00;;;22.47;;
11431;SDS011;5772;50.940;6.782;2023-09-08T01:03:49;23.27;;;22.00;;
11431;SDS011;5772;50.940;6.782;2023-09-08T01:06:15;22.13;;;20.87;;
11431;SDS011;5772;50.940;6.782;2023-09-08T01:08:40;24.73;;;23.20;;
11431;SDS011;5772;50.940;6.782;2023-09-08T01:11:08;23.37;;;21.87;;
11431;SDS011;5772;50.940;6.782;2023-09-08T01:13:33;22.67;;;20.87;;
11431;SDS011;5772;50.940;6.782;2023-09-08T01:15:58;22.63;;;21.13;;
11431;SDS011;5772;50.940;6.782;2023-09-08T01:18:24;23.07;;;21.63;;
11431;SDS011;5772;50.940;6.782;2023-09-08T01:20:58;23.63;;;22.07;;
11431;SDS011;5772;50.940;6.782;2023-09-08T01:23:42;22.50;;;21.20;;
11431;SDS011;5772;50.940;6.782;2023-09-08T01:26:20;23.87;;;22.43;;
11431;SDS011;5772;50.940;6.782;2023-09-08T01:28:46;22.03;;;20.73;;
11431;SDS011;5772;50.940;6.782;2023-09-08T01:31:14;24.43;;;22.93;;
11431;SDS011;5772;50.940;6.782;2023-09-08T01:33:40;24.67;;;22.90;;
11431;SDS011;5772;50.940;6.782;2023-09-08T01:36:05;26.67;;;25.27;;
11431;SDS011;5772;50.940;6.782;2023-09-08T01:38:31;24.60;;;23.30;;
11431;SDS011;5772;50.940;6.782;2023-09-08T01:40:56;24.27;;;22.90;;
11431;SDS011;5772;50.940;6.782;2023-09-08T01:43:23;25.30;;;23.93;;
11431;SDS011;5772;50.940;6.782;2023-09-08T01:45:48;27.50;;;25.87;;
11431;SDS011;5772;50.940;6.782;2023-09-08T01:48:14;29.00;;;27.40;;
11431;SDS011;5772;50.940;6.782;2023-09-08T01:50:39;29.97;;;28.10;;
11431;SDS011;5772;50.940;6.782;2023-09-08T01:53:04;26.43;;;25.13;;
11431;SDS011;5772;50.940;6.782;2023-09-08T01:55:30;29.23;;;27.43;;
11431;SDS011;5772;50.940;6.782;2023-09-08T01:57:55;26.43;;;24.83;;
11431;SDS011;5772;50.940;6.782;2023-09-08T02:00:22;27.17;;;25.73;;
11431;SDS011;5772;50.940;6.782;2023-09-08T02:02:47;31.40;;;29.73;;
11431;SDS011;5772;50.940;6.782;2023-09-08T02:05:13;26.87;;;25.27;;
11431;SDS011;5772;50.940;6.782;2023-09-08T02:07:39;29.80;;;28.07;;
11431;SDS011;5772;50.940;6.782;2023-09-08T02:10:05;28.67;;;26.97;;
11431;SDS011;5772;50.940;6.782;2023-09-08T02:12:30;29.97;;;28.27;;
11431;SDS011;5772;50.940;6.782;2023-09-08T02:14:56;30.27;;;28.70;;
11431;SDS011;5772;50.940;6.782;2023-09-08T02:17:22;28.87;;;27.13;;
11431;SDS011;5772;50.940;6.782;2023-09-08T02:19:48;30.60;;;28.60;;
11431;SDS011;5772;50.940;6.782;2023-09-08T02:22:13;30.40;;;28.07;;
11431;SDS011;5772;50.940;6.782;2023-09-08T02:24:39;27.87;;;26.27;;
11431;SDS011;5772;50.940;6.782;2023-09-08T02:27:04;28.53;;;26.80;;
11431;SDS011;5772;50.940;6.782;2023-09-08T02:29:30;26.80;;;24.97;;
11431;SDS011;5772;50.940;6.782;2023-09-08T02:31:56;27.63;;;26.03;;
11431;SDS011;5772;50.940;6.782;2023-09-08T02:34:23;27.60;;;25.63;;
11431;SDS011;5772;50.940;6.782;2023-09-08T02:36:48;28.40;;;26.87;;
11431;SDS011;5772;50.940;6.782;2023-09-08T02:39:13;28.03;;;26.23;;
11431;SDS011;5772;50.940;6.782;2023-09-08T02:41:39;26.73;;;24.90;;
11431;SDS011;5772;50.940;6.782;2023-09-08T02:44:04;26.40;;;24.73;;
11431;SDS011;5772;50.940;6.782;2023-09-08T02:46:30;24.00;;;22.50;;
11431;SDS011;5772;50.940;6.782;2023-09-08T02:48:55;23.87;;;22.20;;
11431;SDS011;5772;50.940;6.782;2023-09-08T02:51:22;25.10;;;23.37;;
11431;SDS011;5772;50.940;6.782;2023-09-08T02:53:47;23.43;;;21.83;;
11431;SDS011;5772;50.940;6.782;2023-09-08T02:56:13;23.27;;;21.83;;
11431;SDS011;5772;50.940;6.782;2023-09-08T02:58:38;25.23;;;23.67;;
11431;SDS011;5772;50.940;6.782;2023-09-08T03:01:10;23.17;;;21.87;;
11431;SDS011;5772;50.940;6.782;2023-09-08T03:03:36;23.27;;;21.97;;
11431;SDS011;5772;50.940;6.782;2023-09-08T03:06:01;23.83;;;22.10;;
11431;SDS011;5772;50.940;6.782;2023-09-08T03:08:28;25.47;;;23.97;;
11431;SDS011;5772;50.940;6.782;2023-09-08T03:10:55;25.63;;;24.03;;
11431;SDS011;5772;50.940;6.782;2023-09-08T03:13:20;25.87;;;24.10;;
11431;SDS011;5772;50.940;6.782;2023-09-08T03:15:45;25.20;;;23.63;;
11431;SDS011;5772;50.940;6.782;2023-09-08T03:18:11;23.57;;;22.07;;
11431;SDS011;5772;50.940;6.782;2023-09-08T03:20:36;25.63;;;23.93;;
11431;SDS011;5772;50.940;6.782;2023-09-08T03:23:01;24.40;;;23.00;;
11431;SDS011;5772;50.940;6.782;2023-09-08T03:25:28;25.40;;;23.67;;
11431;SDS011;5772;50.940;6.782;2023-09-08T03:27:54;23.03;;;21.77;;
11431;SDS011;5772;50.940;6.782;2023-09-08T03:30:19;24.37;;;22.87;;
11431;SDS011;5772;50.940;6.782;2023-09-08T03:32:44;24.53;;;22.93;;
11431;SDS011;5772;50.940;6.782;2023-09-08T03:35:10;24.90;;;23.30;;
11431;SDS011;5772;50.940;6.782;2023-09-08T03:37:35;23.00;;;21.57;;
11431;SDS011;5772;50.940;6.782;2023-09-08T03:40:00;23.43;;;22.03;;
11431;SDS011;5772;50.940;6.782;2023-09-08T03:42:27;24.97;;;23.10;;
11431;SDS011;5772;50.940;6.782;2023-09-08T03:44:52;25.77;;;24.07;;
11431;SDS011;5772;50.940;6.782;2023-09-08T03:47:18;25.87;;;23.50;;
11431;SDS011;5772;50.940;6.782;2023-09-08T03:49:43;25.87;;;23.93;;
11431;SDS011;5772;50.940;6.782;2023-09-08T03:52:08;26.93;;;25.23;;
11431;SDS011;5772;50.940;6.782;2023-09-08T03:54:34;26.23;;;24.53;;
11431;SDS011;5772;50.940;6.782;2023-09-08T03:56:59;26.30;;;24.33;;
11431;SDS011;5772;50.940;6.782;2023-09-08T03:59:26;26.67;;;24.93;;
11431;SDS011;5772;50.940;6.782;2023-09-08T04:01:51;29.07;;;27.27;;
11431;SDS011;5772;50.940;6.782;2023-09-08T04:04:17;28.83;;;26.83;;
11431;SDS011;5772;50.940;6.782;2023-09-08T04:06:42;30.07;;;27.83;;
11431;SDS011;5772;50.940;6.782;2023-09-08T04:09:07;29.47;;;27.77;;
11431;SDS011;5772;50.940;6.782;2023-09-08T04:11:33;33.23;;;31.33;;
11431;SDS011;5772;50.940;6.782;2023-09-08T04:13:58;37.17;;;34.90;;
11431;SDS011;5772;50.940;6.782;2023-09-08T04:16:25;38.30;;;35.90;;
11431;SDS011;5772;50.940;6.782;2023-09-08T04:18:50;42.37;;;39.37;;
11431;SDS011;5772;50.940;6.782;2023-09-08T04:21:16;39.07;;;36.97;;
11431;SDS011;5772;50.940;6.782;2023-09-08T04:23:41;41.17;;;38.67;;
11431;SDS011;5772;50.940;6.782;2023-09-08T04:26:06;43.87;;;41.43;;
11431;SDS011;5772;50.940;6.782;2023-09-08T04:28:32;42.37;;;39.87;;
11431;SDS011;5772;50.940;6.782;2023-09-08T04:30:57;43.57;;;41.17;;
11431;SDS011;5772;50.940;6.782;2023-09-08T04:33:24;39.10;;;36.83;;
11431;SDS011;5772;50.940;6.782;2023-09-08T04:35:49;38.70;;;36.43;;
11431;SDS011;5772;50.940;6.782;2023-09-08T04:38:14;39.87;;;37.33;;
11431;SDS011;5772;50.940;6.782;2023-09-08T04:40:40;39.63;;;37.33;;
11431;SDS011;5772;50.940;6.782;2023-09-08T04:43:05;37.60;;;35.33;;
11431;SDS011;5772;50.940;6.782;2023-09-08T04:45:30;37.73;;;35.17;;
11431;SDS011;5772;50.940;6.782;2023-09-08T04:47:56;37.10;;;34.73;;
11431;SDS011;5772;50.940;6.782;2023-09-08T04:50:23;35.23;;;33.23;;
11431;SDS011;5772;50.940;6.782;2023-09-08T04:52:48;36.33;;;34.00;;
11431;SDS011;5772;50.940;6.782;2023-09-08T04:55:13;33.47;;;31.57;;
11431;SDS011;5772;50.940;6.782;2023-09-08T04:57:39;34.30;;;32.00;;
11431;SDS011;5772;50.940;6.782;2023-09-08T05:00:05;31.83;;;29.97;;
11431;SDS011;5772;50.940;6.782;2023-09-08T05:02:31;32.93;;;31.03;;
11431;SDS011;5772;50.940;6.782;2023-09-08T05:04:56;35.33;;;32.67;;
11431;SDS011;5772;50.940;6.782;2023-09-08T05:07:23;34.97;;;32.97;;
11431;SDS011;5772;50.940;6.782;2023-09-08T05:09:48;36.67;;;34.37;;
11431;SDS011;5772;50.940;6.782;2023-09-08T05:12:13;33.23;;;31.00;;
11431;SDS011;5772;50.940;6.782;2023-09-08T05:14:39;35.67;;;33.47;;
11431;SDS011;5772;50.940;6.782;2023-09-08T05:17:04;35.23;;;33.00;;
11431;SDS011;5772;50.940;6.782;2023-09-08T05:19:29;35.60;;;33.47;;
11431;SDS011;5772;50.940;6.782;2023-09-08T05:21:55;33.83;;;31.93;;
11431;SDS011;5772;50.940;6.782;2023-09-08T05:24:22;37.87;;;35.43;;
11431;SDS011;5772;50.940;6.782;2023-09-08T05:26:47;36.07;;;34.00;;
11431;SDS011;5772;50.940;6.782;2023-09-08T05:29:13;38.03;;;35.83;;
11431;SDS011;5772;50.940;6.782;2023-09-08T05:31:38;34.70;;;32.83;;
11431;SDS011;5772;50.940;6.782;2023-09-08T05:34:04;35.13;;;32.83;;
11431;SDS011;5772;50.940;6.782;2023-09-08T05:36:29;36.23;;;34.17;;
11431;SDS011;5772;50.940;6.782;2023-09-08T05:38:55;34.47;;;32.43;;
11431;SDS011;5772;50.940;6.782;2023-09-08T05:41:21;35.63;;;33.40;;
11431;SDS011;5772;50.940;6.782;2023-09-08T05:43:47;33.40;;;31.13;;
11431;SDS011;5772;50.940;6.782;2023-09-08T05:46:13;33.13;;;30.93;;
11431;SDS011;5772;50.940;6.782;2023-09-08T05:48:38;33.33;;;31.33;;
11431;SDS011;5772;50.940;6.782;2023-09-08T05:51:03;34.37;;;32.23;;
11431;SDS011;5772;50.940;6.782;2023-09-08T05:53:29;36.07;;;33.60;;
11431;SDS011;5772;50.940;6.782;2023-09-08T05:55:54;34.50;;;32.07;;
11431;SDS011;5772;50.940;6.782;2023-09-08T05:58:21;34.87;;;33.07;;
11431;SDS011;5772;50.940;6.782;2023-09-08T06:00:46;36.97;;;34.87;;
11431;SDS011;5772;50.940;6.782;2023-09-08T06:03:11;37.40;;;35.60;;
11431;SDS011;5772;50.940;6.782;2023-09-08T06:05:37;36.93;;;34.73;;
11431;SDS011;5772;50.940;6.782;2023-09-08T06:08:02;39.23;;;36.47;;
11431;SDS011;5772;50.940;6.782;2023-09-08T06:10:28;35.57;;;33.50;;
11431;SDS011;5772;50.940;6.782;2023-09-08T06:12:53;33.80;;;31.90;;
11431;SDS011;5772;50.940;6.782;2023-09-08T06:15:20;33.80;;;31.93;;
11431;SDS011;5772;50.940;6.782;2023-09-08T06:17:45;27.57;;;25.93;;
11431;SDS011;5772;50.940;6.782;2023-09-08T06:20:11;23.40;;;22.00;;
11431;SDS011;5772;50.940;6.782;2023-09-08T06:22:36;25.70;;;24.07;;
11431;SDS011;5772;50.940;6.782;2023-09-08T06:25:02;24.10;;;22.67;;
11431;SDS011;5772;50.940;6.782;2023-09-08T06:27:27;30.80;;;29.00;;
11431;SDS011;5772;50.940;6.782;2023-09-08T06:29:53;23.57;;;22.23;;
11431;SDS011;5772;50.940;6.782;2023-09-08T06:32:19;20.43;;;19.13;;
11431;SDS011;5772;50.940;6.782;2023-09-08T06:34:45;20.88;;;19.70;;
11431;SDS011;5772;50.940;6.782;2023-09-08T06:37:10;22.25;;;20.90;;
11431;SDS011;5772;50.940;6.782;2023-09-08T06:39:35;19.88;;;18.70;;
11431;SDS011;5772;50.940;6.782;2023-09-08T06:42:04;19.02;;;17.88;;
11431;SDS011;5772;50.940;6.782;2023-09-08T06:44:29;18.75;;;17.63;;
11431;SDS011;5772;50.940;6.782;2023-09-08T06:46:54;18.23;;;17.17;;
11431;SDS011;5772;50.940;6.782;2023-09-08T06:49:21;18.58;;;17.40;;
11431;SDS011;5772;50.940;6.782;2023-09-08T06:51:46;17.52;;;16.33;;
11431;SDS011;5772;50.940;6.782;2023-09-08T06:54:12;17.80;;;16.65;;
11431;SDS011;5772;50.940;6.782;2023-09-08T06:56:37;16.13;;;15.23;;
11431;SDS011;5772;50.940;6.782;2023-09-08T06:59:02;18.20;;;16.83;;
11431;SDS011;5772;50.940;6.782;2023-09-08T07:01:28;17.92;;;16.85;;
11431;SDS011;5772;50.940;6.782;2023-09-08T07:03:53;15.80;;;14.90;;
11431;SDS011;5772;50.940;6.782;2023-09-08T07:06:20;15.93;;;14.93;;
11431;SDS011;5772;50.940;6.782;2023-09-08T07:08:45;17.38;;;16.38;;
11431;SDS011;5772;50.940;6.782;2023-09-08T07:11:11;18.20;;;16.95;;
11431;SDS011;5772;50.940;6.782;2023-09-08T07:13:36;17.10;;;15.90;;
11431;SDS011;5772;50.940;6.782;2023-09-08T07:16:01;17.55;;;16.50;;
11431;SDS011;5772;50.940;6.782;2023-09-08T07:18:27;16.70;;;15.73;;
11431;SDS011;5772;50.940;6.782;2023-09-08T07:20:52;18.05;;;16.85;;
11431;SDS011;5772;50.940;6.782;2023-09-08T07:23:19;18.70;;;17.52;;
11431;SDS011;5772;50.940;6.782;2023-09-08T07:25:45;17.80;;;16.88;;
11431;SDS011;5772;50.940;6.782;2023-09-08T07:28:11;17.35;;;16.10;;
11431;SDS011;5772;50.940;6.782;2023-09-08T07:30:36;17.30;;;16.27;;
11431;SDS011;5772;50.940;6.782;2023-09-08T07:33:01;15.75;;;14.65;;
11431;SDS011;5772;50.940;6.782;2023-09-08T07:35:27;17.65;;;16.33;;
11431;SDS011;5772;50.940;6.782;2023-09-08T07:37:52;16.38;;;15.55;;
11431;SDS011;5772;50.940;6.782;2023-09-08T07:40:19;18.42;;;17.13;;
11431;SDS011;5772;50.940;6.782;2023-09-08T07:42:44;18.02;;;16.95;;
11431;SDS011;5772;50.940;6.782;2023-09-08T07:45:10;17.50;;;16.30;;
11431;SDS011;5772;50.940;6.782;2023-09-08T07:47:35;19.48;;;18.38;;
11431;SDS011;5772;50.940;6.782;2023-09-08T07:50:16;17.65;;;16.65;;
11431;SDS011;5772;50.940;6.782;2023-09-08T07:52:42;16.73;;;15.70;;
11431;SDS011;5772;50.940;6.782;2023-09-08T07:55:08;17.13;;;16.15;;
11431;SDS011;5772;50.940;6.782;2023-09-08T07:57:35;16.70;;;15.70;;
11431;SDS011;5772;50.940;6.782;2023-09-08T08:00:00;17.38;;;16.15;;
11431;SDS011;5772;50.940;6.782;2023-09-08T08:02:26;16.23;;;15.35;;
11431;SDS011;5772;50.940;6.782;2023-09-08T08:04:51;16.13;;;15.10;;
11431;SDS011;5772;50.940;6.782;2023-09-08T08:07:17;16.52;;;15.52;;
11431;SDS011;5772;50.940;6.782;2023-09-08T08:09:42;16.73;;;15.73;;
11431;SDS011;5772;50.940;6.782;2023-09-08T08:12:07;17.20;;;16.20;;
11431;SDS011;5772;50.940;6.782;2023-09-08T08:14:34;17.30;;;16.27;;
11431;SDS011;5772;50.940;6.782;2023-09-08T08:16:59;15.98;;;15.07;;
11431;SDS011;5772;50.940;6.782;2023-09-08T08:19:25;16.48;;;15.38;;
11431;SDS011;5772;50.940;6.782;2023-09-08T08:21:50;17.50;;;16.38;;
11431;SDS011;5772;50.940;6.782;2023-09-08T08:24:15;16.88;;;15.93;;
11431;SDS011;5772;50.940;6.782;2023-09-08T08:26:41;17.38;;;16.33;;
11431;SDS011;5772;50.940;6.782;2023-09-08T08:29:06;17.23;;;16.02;;
11431;SDS011;5772;50.940;6.782;2023-09-08T08:31:33;15.13;;;14.23;;
11431;SDS011;5772;50.940;6.782;2023-09-08T08:33:58;15.02;;;14.23;;
11431;SDS011;5772;50.940;6.782;2023-09-08T08:36:24;15.85;;;14.82;;
11431;SDS011;5772;50.940;6.782;2023-09-08T08:38:49;15.57;;;14.57;;
11431;SDS011;5772;50.940;6.782;2023-09-08T08:41:14;14.63;;;13.75;;
11431;SDS011;5772;50.940;6.782;2023-09-08T08:43:40;15.63;;;14.63;;
11431;SDS011;5772;50.940;6.782;2023-09-08T08:46:06;15.00;;;14.10;;
11431;SDS011;5772;50.940;6.782;2023-09-08T08:48:33;15.52;;;14.52;;
11431;SDS011;5772;50.940;6.782;2023-09-08T08:50:58;13.98;;;13.25;;
11431;SDS011;5772;50.940;6.782;2023-09-08T08:53:25;14.27;;;13.38;;
11431;SDS011;5772;50.940;6.782;2023-09-08T08:55:51;16.38;;;15.07;;
11431;SDS011;5772;50.940;6.782;2023-09-08T08:58:17;15.38;;;14.48;;
11431;SDS011;5772;50.940;6.782;2023-09-08T09:00:43;14.43;;;13.43;;
11431;SDS011;5772;50.940;6.782;2023-09-08T09:03:09;15.35;;;14.35;;
11431;SDS011;5772;50.940;6.782;2023-09-08T09:05:36;14.85;;;13.77;;
11431;SDS011;5772;50.940;6.782;2023-09-08T09:08:01;15.07;;;14.07;;
11431;SDS011;5772;50.940;6.782;2023-09-08T09:10:27;14.68;;;13.77;;
11431;SDS011;5772;50.940;6.782;2023-09-08T09:12:52;15.55;;;14.75;;
11431;SDS011;5772;50.940;6.782;2023-09-08T09:15:24;15.43;;;14.35;;
11431;SDS011;5772;50.940;6.782;2023-09-08T09:18:01;16.25;;;15.23;;
11431;SDS011;5772;50.940;6.782;2023-09-08T09:20:27;15.52;;;14.52;;
11431;SDS011;5772;50.940;6.782;2023-09-08T09:22:54;15.35;;;14.38;;
11431;SDS011;5772;50.940;6.782;2023-09-08T09:25:23;16.25;;;14.90;;
11431;SDS011;5772;50.940;6.782;2023-09-08T09:27:52;15.38;;;14.48;;
11431;SDS011;5772;50.940;6.782;2023-09-08T09:30:17;14.75;;;14.05;;
11431;SDS011;5772;50.940;6.782;2023-09-08T09:32:42;14.80;;;14.07;;
11431;SDS011;5772;50.940;6.782;2023-09-08T09:35:08;14.88;;;14.07;;
11431;SDS011;5772;50.940;6.782;2023-09-08T09:37:33;15.25;;;13.80;;
11431;SDS011;5772;50.940;6.782;2023-09-08T09:40:00;14.93;;;14.13;;
11431;SDS011;5772;50.940;6.782;2023-09-08T09:42:25;15.32;;;14.32;;
11431;SDS011;5772;50.940;6.782;2023-09-08T09:44:52;14.95;;;13.85;;
11431;SDS011;5772;50.940;6.782;2023-09-08T09:47:18;15.82;;;14.95;;
11431;SDS011;5772;50.940;6.782;2023-09-08T09:49:44;15.15;;;14.25;;
11431;SDS011;5772;50.940;6.782;2023-09-08T09:52:11;15.00;;;13.95;;
11431;SDS011;5772;50.940;6.782;2023-09-08T09:54:36;13.70;;;12.93;;
11431;SDS011;5772;50.940;6.782;2023-09-08T09:57:03;14.30;;;13.35;;
11431;SDS011;5772;50.940;6.782;2023-09-08T09:59:28;14.40;;;13.50;;
11431;SDS011;5772;50.940;6.782;2023-09-08T10:01:54;14.23;;;13.52;;
11431;SDS011;5772;50.940;6.782;2023-09-08T10:04:19;15.57;;;14.77;;
11431;SDS011;5772;50.940;6.782;2023-09-08T10:06:45;15.70;;;14.73;;
11431;SDS011;5772;50.940;6.782;2023-09-08T10:09:11;14.68;;;13.77;;
11431;SDS011;5772;50.940;6.782;2023-09-08T10:11:38;14.60;;;13.70;;
11431;SDS011;5772;50.940;6.782;2023-09-08T10:14:08;16.55;;;15.48;;
11431;SDS011;5772;50.940;6.782;2023-09-08T10:16:34;14.25;;;13.20;;
11431;SDS011;5772;50.940;6.782;2023-09-08T10:18:59;15.30;;;14.40;;
11431;SDS011;5772;50.940;6.782;2023-09-08T10:21:26;15.80;;;14.80;;
11431;SDS011;5772;50.940;6.782;2023-09-08T10:23:53;14.98;;;14.10;;
11431;SDS011;5772;50.940;6.782;2023-09-08T10:26:22;16.08;;;15.27;;
11431;SDS011;5772;50.940;6.782;2023-09-08T10:28:49;15.77;;;14.68;;
11431;SDS011;5772;50.940;6.782;2023-09-08T10:31:16;16.48;;;15.57;;
11431;SDS011;5772;50.940;6.782;2023-09-08T10:33:42;14.98;;;14.18;;
11431;SDS011;5772;50.940;6.782;2023-09-08T10:36:08;15.05;;;14.13;;
11431;SDS011;5772;50.940;6.782;2023-09-08T10:38:34;15.30;;;14.50;;
11431;SDS011;5772;50.940;6.782;2023-09-08T10:41:26;14.90;;;14.20;;
11431;SDS011;5772;50.940;6.782;2023-09-08T10:43:54;16.10;;;15.27;;
11431;SDS011;5772;50.940;6.782;2023-09-08T10:46:22;16.00;;;14.90;;
11431;SDS011;5772;50.940;6.782;2023-09-08T10:48:48;13.73;;;13.05;;
11431;SDS011;5772;50.940;6.782;2023-09-08T10:51:13;16.52;;;15.73;;
11431;SDS011;5772;50.940;6.782;2023-09-08T10:53:39;14.75;;;14.05;;
11431;SDS011;5772;50.940;6.782;2023-09-08T10:56:04;15.30;;;14.50;;
11431;SDS011;5772;50.940;6.782;2023-09-08T10:58:30;13.80;;;13.00;;
11431;SDS011;5772;50.940;6.782;2023-09-08T11:00:58;14.75;;;13.98;;
11431;SDS011;5772;50.940;6.782;2023-09-08T11:03:42;16.25;;;15.35;;
11431;SDS011;5772;50.940;6.782;2023-09-08T11:06:08;16.05;;;15.15;;
11431;SDS011;5772;50.940;6.782;2023-09-08T11:08:34;13.93;;;13.15;;
11431;SDS011;5772;50.940;6.782;2023-09-08T11:11:01;15.27;;;14.43;;
11431;SDS011;5772;50.940;6.782;2023-09-08T11:13:27;15.15;;;14.45;;
11431;SDS011;5772;50.940;6.782;2023-09-08T11:15:52;15.73;;;14.40;;
11431;SDS011;5772;50.940;6.782;2023-09-08T11:18:18;14.27;;;13.38;;
11431;SDS011;5772;50.940;6.782;2023-09-08T11:20:52;15.63;;;14.73;;
11431;SDS011;5772;50.940;6.782;2023-09-08T11:23:18;15.70;;;14.88;;
11431;SDS011;5772;50.940;6.782;2023-09-08T11:25:43;16.42;;;15.55;;
11431;SDS011;5772;50.940;6.782;2023-09-08T11:28:08;15.63;;;14.82;;
11431;SDS011;5772;50.940;6.782;2023-09-08T11:30:35;15.82;;;15.02;;
11431;SDS011;5772;50.940;6.782;2023-09-08T11:33:00;14.95;;;14.25;;
11431;SDS011;5772;50.940;6.782;2023-09-08T11:35:26;16.52;;;15.20;;
11431;SDS011;5772;50.940;6.782;2023-09-08T11:37:58;15.98;;;15.07;;
11431;SDS011;5772;50.940;6.782;2023-09-08T11:40:24;15.75;;;14.85;;
11431;SDS011;5772;50.940;6.782;2023-09-08T11:42:49;16.40;;;15.50;;
11431;SDS011;5772;50.940;6.782;2023-09-08T11:45:15;15.50;;;14.70;;
11431;SDS011;5772;50.940;6.782;2023-09-08T11:47:41;16.23;;;15.35;;
11431;SDS011;5772;50.940;6.782;2023-09-08T11:50:07;15.00;;;14.20;;
11431;SDS011;5772;50.940;6.782;2023-09-08T11:52:33;14.82;;;14.02;;
11431;SDS011;5772;50.940;6.782;2023-09-08T11:55:00;14.90;;;14.15;;
11431;SDS011;5772;50.940;6.782;2023-09-08T11:57:25;15.65;;;14.85;;
11431;SDS011;5772;50.940;6.782;2023-09-08T11:59:51;15.38;;;14.48;;
11431;SDS011;5772;50.940;6.782;2023-09-08T12:02:16;16.15;;;15.35;;
11431;SDS011;5772;50.940;6.782;2023-09-08T12:04:41;15.18;;;14.43;;
11431;SDS011;5772;50.940;6.782;2023-09-08T12:07:07;15.40;;;14.52;;
11431;SDS011;5772;50.940;6.782;2023-09-08T12:09:37;16.40;;;15.50;;
11431;SDS011;5772;50.940;6.782;2023-09-08T12:12:04;16.92;;;16.00;;
11431;SDS011;5772;50.940;6.782;2023-09-08T12:14:39;16.85;;;15.95;;
11431;SDS011;5772;50.940;6.782;2023-09-08T12:17:05;17.00;;;16.05;;
11431;SDS011;5772;50.940;6.782;2023-09-08T12:19:31;17.35;;;16.23;;
11431;SDS011;5772;50.940;6.782;2023-09-08T12:21:59;16.10;;;15.20;;
11431;SDS011;5772;50.940;6.782;2023-09-08T12:27:12;19.13;;;17.27;;
11431;SDS011;5772;50.940;6.782;2023-09-08T12:29:37;20.27;;;17.25;;
11431;SDS011;5772;50.940;6.782;2023-09-08T12:32:03;15.20;;;14.32;;
11431;SDS011;5772;50.940;6.782;2023-09-08T12:34:29;15.70;;;14.55;;
11431;SDS011;5772;50.940;6.782;2023-09-08T12:36:55;15.02;;;13.82;;
11431;SDS011;5772;50.940;6.782;2023-09-08T12:39:20;17.17;;;15.77;;
11431;SDS011;5772;50.940;6.782;2023-09-08T12:41:45;17.08;;;15.38;;
11431;SDS011;5772;50.940;6.782;2023-09-08T12:44:12;18.25;;;16.70;;
11431;SDS011;5772;50.940;6.782;2023-09-08T12:46:37;17.65;;;16.08;;
11431;SDS011;5772;50.940;6.782;2023-09-08T12:49:04;17.35;;;15.90;;
11431;SDS011;5772;50.940;6.782;2023-09-08T12:51:29;14.93;;;13.95;;
11431;SDS011;5772;50.940;6.782;2023-09-08T12:53:55;15.40;;;14.30;;
11431;SDS011;5772;50.940;6.782;2023-09-08T12:56:20;14.95;;;13.85;;
11431;SDS011;5772;50.940;6.782;2023-09-08T12:58:45;15.10;;;14.00;;
11431;SDS011;5772;50.940;6.782;2023-09-08T13:01:12;15.50;;;14.27;;
11431;SDS011;5772;50.940;6.782;2023-09-08T13:03:37;14.85;;;13.77;;
11431;SDS011;5772;50.940;6.782;2023-09-08T13:06:03;14.75;;;13.75;;
11431;SDS011;5772;50.940;6.782;2023-09-08T13:08:28;15.52;;;14.57;;
11431;SDS011;5772;50.940;6.782;2023-09-08T13:10:54;15.32;;;14.32;;
11431;SDS011;5772;50.940;6.782;2023-09-08T13:13:19;15.00;;;14.25;;
11431;SDS011;5772;50.940;6.782;2023-09-08T13:15:44;13.95;;;12.95;;
11431;SDS011;5772;50.940;6.782;2023-09-08T13:18:11;13.98;;;12.88;;
11431;SDS011;5772;50.940;6.782;2023-09-08T13:20:36;13.10;;;12.50;;
11431;SDS011;5772;50.940;6.782;2023-09-08T13:23:02;14.95;;;14.00;;
11431;SDS011;5772;50.940;6.782;2023-09-08T13:25:27;13.70;;;12.90;;
11431;SDS011;5772;50.940;6.782;2023-09-08T13:27:52;13.45;;;12.65;;
11431;SDS011;5772;50.940;6.782;2023-09-08T13:30:18;14.48;;;13.68;;
11431;SDS011;5772;50.940;6.782;2023-09-08T13:32:44;13.88;;;13.18;;
11431;SDS011;5772;50.940;6.782;2023-09-08T13:35:11;14.30;;;13.50;;
11431;SDS011;5772;50.940;6.782;2023-09-08T13:37:36;14.68;;;13.80;;
11431;SDS011;5772;50.940;6.782;2023-09-08T13:40:02;14.10;;;13.23;;
11431;SDS011;5772;50.940;6.782;2023-09-08T13:42:28;14.32;;;13.55;;
11431;SDS011;5772;50.940;6.782;2023-09-08T13:44:53;13.75;;;13.15;;
11431;SDS011;5772;50.940;6.782;2023-09-08T13:47:18;14.85;;;13.95;;
11431;SDS011;5772;50.940;6.782;2023-09-08T13:49:44;14.10;;;13.40;;
11431;SDS011;5772;50.940;6.782;2023-09-08T13:52:10;14.63;;;13.68;;
11431;SDS011;5772;50.940;6.782;2023-09-08T13:54:36;13.10;;;12.40;;
11431;SDS011;5772;50.940;6.782;2023-09-08T13:57:01;14.75;;;13.73;;
11431;SDS011;5772;50.940;6.782;2023-09-08T13:59:28;14.88;;;14.00;;
11431;SDS011;5772;50.940;6.782;2023-09-08T14:01:54;14.43;;;13.68;;
11431;SDS011;5772;50.940;6.782;2023-09-08T14:04:19;15.27;;;14.18;;
11431;SDS011;5772;50.940;6.782;2023-09-08T14:06:45;14.18;;;13.48;;
11431;SDS011;5772;50.940;6.782;2023-09-08T14:09:11;14.95;;;14.07;;
11431;SDS011;5772;50.940;6.782;2023-09-08T14:11:37;13.70;;;12.90;;
11431;SDS011;5772;50.940;6.782;2023-09-08T14:14:02;14.20;;;13.40;;
11431;SDS011;5772;50.940;6.782;2023-09-08T14:16:27;13.60;;;13.00;;
11431;SDS011;5772;50.940;6.782;2023-09-08T14:18:53;14.00;;;13.30;;
11431;SDS011;5772;50.940;6.782;2023-09-08T14:21:18;15.30;;;14.40;;
11431;SDS011;5772;50.940;6.782;2023-09-08T14:23:43;15.65;;;14.75;;
11431;SDS011;5772;50.940;6.782;2023-09-08T14:26:10;15.32;;;14.32;;
11431;SDS011;5772;50.940;6.782;2023-09-08T14:28:35;13.18;;;12.57;;